sensor_id;sensor_type;location;lat;lon;timestamp;P1;durP1;ratioP1;P2;durP2;ratioP2
9306;SDS011;4691;47.612;7.610;2023-04-03T00:01:09;25.98;;;16.00;;
9306;SDS011;4691;47.612;7.610;2023-04-03T00:03:34;27.52;;;16.48;;
9306;SDS011;4691;47.612;7.610;2023-04-03T00:06:00;28.30;;;16.75;;
9306;SDS011;4691;47.612;7.610;2023-04-03T00:08:27;26.23;;;15.30;;
9306;SDS011;4691;47.612;7.610;2023-04-03T00:10:55;23.05;;;14.73;;
9306;SDS011;4691;47.612;7.610;2023-04-03T00:13:20;23.63;;;14.80;;
9306;SDS011;4691;47.612;7.610;2023-04-03T00:15:46;20.58;;;13.70;;
9306;SDS011;4691;47.612;7.610;2023-04-03T00:18:11;21.35;;;13.75;;
9306;SDS011;4691;47.612;7.610;2023-04-03T00:20:37;19.83;;;12.13;;
9306;SDS011;4691;47.612;7.610;2023-04-03T00:23:02;19.23;;;12.07;;
9306;SDS011;4691;47.612;7.610;2023-04-03T00:25:27;18.08;;;11.77;;
9306;SDS011;4691;47.612;7.610;2023-04-03T00:27:53;23.50;;;13.82;;
9306;SDS011;4691;47.612;7.610;2023-04-03T00:30:19;19.35;;;12.50;;
9306;SDS011;4691;47.612;7.610;2023-04-03T00:32:47;20.13;;;11.90;;
9306;SDS011;4691;47.612;7.610;2023-04-03T00:35:13;19.55;;;13.52;;
9306;SDS011;4691;47.612;7.610;2023-04-03T00:37:40;21.02;;;13.25;;
9306;SDS011;4691;47.612;7.610;2023-04-03T00:40:06;18.38;;;11.70;;
9306;SDS011;4691;47.612;7.610;2023-04-03T00:42:33;19.80;;;12.80;;
9306;SDS011;4691;47.612;7.610;2023-04-03T00:47:25;19.65;;;12.38;;
9306;SDS011;4691;47.612;7.610;2023-04-03T00:49:52;21.23;;;13.85;;
9306;SDS011;4691;47.612;7.610;2023-04-03T00:52:19;18.60;;;11.95;;
9306;SDS011;4691;47.612;7.610;2023-04-03T00:54:48;19.98;;;12.48;;
9306;SDS011;4691;47.612;7.610;2023-04-03T00:57:17;17.10;;;11.35;;
9306;SDS011;4691;47.612;7.610;2023-04-03T00:59:44;17.48;;;11.38;;
9306;SDS011;4691;47.612;7.610;2023-04-03T01:02:14;21.40;;;12.60;;
9306;SDS011;4691;47.612;7.610;2023-04-03T01:04:41;20.65;;;12.13;;
9306;SDS011;4691;47.612;7.610;2023-04-03T01:10:04;19.00;;;12.02;;
9306;SDS011;4691;47.612;7.610;2023-04-03T01:17:32;22.38;;;12.25;;
9306;SDS011;4691;47.612;7.610;2023-04-03T01:20:16;24.50;;;12.77;;
9306;SDS011;4691;47.612;7.610;2023-04-03T01:25:21;18.15;;;12.82;;
9306;SDS011;4691;47.612;7.610;2023-04-03T01:27:46;19.17;;;12.35;;
9306;SDS011;4691;47.612;7.610;2023-04-03T01:30:12;20.10;;;11.80;;
9306;SDS011;4691;47.612;7.610;2023-04-03T01:32:41;23.77;;;12.43;;
9306;SDS011;4691;47.612;7.610;2023-04-03T01:35:07;20.20;;;12.45;;
9306;SDS011;4691;47.612;7.610;2023-04-03T01:37:33;20.67;;;12.88;;
9306;SDS011;4691;47.612;7.610;2023-04-03T01:39:58;19.80;;;12.77;;
9306;SDS011;4691;47.612;7.610;2023-04-03T01:42:24;20.92;;;13.40;;
9306;SDS011;4691;47.612;7.610;2023-04-03T01:44:49;22.42;;;12.50;;
9306;SDS011;4691;47.612;7.610;2023-04-03T01:47:14;22.70;;;13.40;;
9306;SDS011;4691;47.612;7.610;2023-04-03T01:49:40;18.92;;;12.80;;
9306;SDS011;4691;47.612;7.610;2023-04-03T01:52:05;18.88;;;12.52;;
9306;SDS011;4691;47.612;7.610;2023-04-03T01:54:30;18.90;;;12.25;;
9306;SDS011;4691;47.612;7.610;2023-04-03T01:56:55;25.15;;;12.63;;
9306;SDS011;4691;47.612;7.610;2023-04-03T01:59:21;16.98;;;11.55;;
9306;SDS011;4691;47.612;7.610;2023-04-03T02:01:46;15.93;;;11.10;;
9306;SDS011;4691;47.612;7.610;2023-04-03T02:04:12;17.88;;;12.48;;
9306;SDS011;4691;47.612;7.610;2023-04-03T02:06:38;18.60;;;12.18;;
9306;SDS011;4691;47.612;7.610;2023-04-03T02:09:03;16.52;;;11.73;;
9306;SDS011;4691;47.612;7.610;2023-04-03T02:11:29;17.17;;;11.05;;
9306;SDS011;4691;47.612;7.610;2023-04-03T02:13:55;18.48;;;11.27;;
9306;SDS011;4691;47.612;7.610;2023-04-03T02:19:31;16.00;;;11.15;;
9306;SDS011;4691;47.612;7.610;2023-04-03T02:21:56;18.75;;;11.98;;
9306;SDS011;4691;47.612;7.610;2023-04-03T02:24:22;19.30;;;12.38;;
9306;SDS011;4691;47.612;7.610;2023-04-03T02:26:47;16.92;;;10.80;;
9306;SDS011;4691;47.612;7.610;2023-04-03T02:29:12;18.20;;;11.20;;
9306;SDS011;4691;47.612;7.610;2023-04-03T02:31:37;12.73;;;9.13;;
9306;SDS011;4691;47.612;7.610;2023-04-03T02:34:03;14.45;;;9.95;;
9306;SDS011;4691;47.612;7.610;2023-04-03T02:36:28;22.13;;;10.75;;
9306;SDS011;4691;47.612;7.610;2023-04-03T02:38:53;16.55;;;11.27;;
9306;SDS011;4691;47.612;7.610;2023-04-03T02:41:18;18.48;;;10.98;;
9306;SDS011;4691;47.612;7.610;2023-04-03T02:43:45;17.05;;;10.95;;
9306;SDS011;4691;47.612;7.610;2023-04-03T02:46:11;16.80;;;10.88;;
9306;SDS011;4691;47.612;7.610;2023-04-03T02:48:36;17.83;;;11.35;;
9306;SDS011;4691;47.612;7.610;2023-04-03T02:51:02;15.07;;;10.30;;
9306;SDS011;4691;47.612;7.610;2023-04-03T02:53:27;17.25;;;11.75;;
9306;SDS011;4691;47.612;7.610;2023-04-03T02:55:52;21.83;;;12.70;;
9306;SDS011;4691;47.612;7.610;2023-04-03T02:58:18;18.35;;;11.65;;
9306;SDS011;4691;47.612;7.610;2023-04-03T03:00:43;14.60;;;10.73;;
9306;SDS011;4691;47.612;7.610;2023-04-03T03:03:08;14.13;;;9.50;;
9306;SDS011;4691;47.612;7.610;2023-04-03T03:05:33;17.88;;;10.93;;
9306;SDS011;4691;47.612;7.610;2023-04-03T03:07:59;18.95;;;10.77;;
9306;SDS011;4691;47.612;7.610;2023-04-03T03:10:24;16.00;;;10.40;;
9306;SDS011;4691;47.612;7.610;2023-04-03T03:12:50;11.45;;;9.25;;
9306;SDS011;4691;47.612;7.610;2023-04-03T03:15:15;14.43;;;9.27;;
9306;SDS011;4691;47.612;7.610;2023-04-03T03:17:42;16.02;;;10.27;;
9306;SDS011;4691;47.612;7.610;2023-04-03T03:20:08;16.08;;;10.27;;
9306;SDS011;4691;47.612;7.610;2023-04-03T03:22:34;15.65;;;8.88;;
9306;SDS011;4691;47.612;7.610;2023-04-03T03:25:00;14.35;;;9.73;;
9306;SDS011;4691;47.612;7.610;2023-04-03T03:27:27;15.43;;;10.55;;
9306;SDS011;4691;47.612;7.610;2023-04-03T03:29:52;13.55;;;8.63;;
9306;SDS011;4691;47.612;7.610;2023-04-03T03:32:17;12.23;;;8.70;;
9306;SDS011;4691;47.612;7.610;2023-04-03T03:34:43;13.27;;;9.00;;
9306;SDS011;4691;47.612;7.610;2023-04-03T03:37:08;13.30;;;8.15;;
9306;SDS011;4691;47.612;7.610;2023-04-03T03:39:33;18.02;;;10.45;;
9306;SDS011;4691;47.612;7.610;2023-04-03T03:41:58;13.73;;;9.70;;
9306;SDS011;4691;47.612;7.610;2023-04-03T03:44:24;14.93;;;9.23;;
9306;SDS011;4691;47.612;7.610;2023-04-03T03:46:49;14.05;;;9.40;;
9306;SDS011;4691;47.612;7.610;2023-04-03T03:49:15;13.75;;;9.18;;
9306;SDS011;4691;47.612;7.610;2023-04-03T03:51:40;16.13;;;9.85;;
9306;SDS011;4691;47.612;7.610;2023-04-03T03:54:06;12.25;;;8.77;;
9306;SDS011;4691;47.612;7.610;2023-04-03T03:56:31;15.27;;;9.40;;
9306;SDS011;4691;47.612;7.610;2023-04-03T03:58:57;13.43;;;9.43;;
9306;SDS011;4691;47.612;7.610;2023-04-03T04:01:23;12.75;;;8.50;;
9306;SDS011;4691;47.612;7.610;2023-04-03T04:03:48;15.38;;;9.93;;
9306;SDS011;4691;47.612;7.610;2023-04-03T04:06:14;14.52;;;9.27;;
9306;SDS011;4691;47.612;7.610;2023-04-03T04:08:40;15.45;;;9.15;;
9306;SDS011;4691;47.612;7.610;2023-04-03T04:11:05;12.95;;;8.07;;
9306;SDS011;4691;47.612;7.610;2023-04-03T04:13:31;14.13;;;8.43;;
9306;SDS011;4691;47.612;7.610;2023-04-03T04:15:56;12.57;;;8.70;;
9306;SDS011;4691;47.612;7.610;2023-04-03T04:18:21;13.25;;;9.18;;
9306;SDS011;4691;47.612;7.610;2023-04-03T04:20:47;13.68;;;8.57;;
9306;SDS011;4691;47.612;7.610;2023-04-03T04:23:13;14.15;;;9.18;;
9306;SDS011;4691;47.612;7.610;2023-04-03T04:25:39;13.73;;;8.27;;
9306;SDS011;4691;47.612;7.610;2023-04-03T04:28:04;12.25;;;8.63;;
9306;SDS011;4691;47.612;7.610;2023-04-03T04:30:30;10.43;;;7.82;;
9306;SDS011;4691;47.612;7.610;2023-04-03T04:32:55;14.40;;;9.55;;
9306;SDS011;4691;47.612;7.610;2023-04-03T04:35:20;13.85;;;8.88;;
9306;SDS011;4691;47.612;7.610;2023-04-03T04:37:46;12.77;;;8.52;;
9306;SDS011;4691;47.612;7.610;2023-04-03T04:40:11;15.57;;;10.15;;
9306;SDS011;4691;47.612;7.610;2023-04-03T04:42:36;14.02;;;8.73;;
9306;SDS011;4691;47.612;7.610;2023-04-03T04:45:01;12.95;;;9.07;;
9306;SDS011;4691;47.612;7.610;2023-04-03T04:47:28;11.02;;;8.20;;
9306;SDS011;4691;47.612;7.610;2023-04-03T04:49:53;14.25;;;8.52;;
9306;SDS011;4691;47.612;7.610;2023-04-03T04:52:19;11.52;;;8.30;;
9306;SDS011;4691;47.612;7.610;2023-04-03T04:54:44;13.90;;;9.13;;
9306;SDS011;4691;47.612;7.610;2023-04-03T04:57:10;14.80;;;9.15;;
9306;SDS011;4691;47.612;7.610;2023-04-03T04:59:35;14.57;;;8.52;;
9306;SDS011;4691;47.612;7.610;2023-04-03T05:02:01;16.42;;;9.05;;
9306;SDS011;4691;47.612;7.610;2023-04-03T05:04:26;12.25;;;8.00;;
9306;SDS011;4691;47.612;7.610;2023-04-03T05:06:51;11.35;;;7.95;;
9306;SDS011;4691;47.612;7.610;2023-04-03T05:09:17;13.07;;;8.98;;
9306;SDS011;4691;47.612;7.610;2023-04-03T05:11:43;15.32;;;8.65;;
9306;SDS011;4691;47.612;7.610;2023-04-03T05:14:08;16.95;;;9.10;;
9306;SDS011;4691;47.612;7.610;2023-04-03T05:16:33;11.48;;;8.75;;
9306;SDS011;4691;47.612;7.610;2023-04-03T05:18:59;14.15;;;8.80;;
9306;SDS011;4691;47.612;7.610;2023-04-03T05:21:24;14.73;;;9.48;;
9306;SDS011;4691;47.612;7.610;2023-04-03T05:23:51;11.65;;;7.93;;
9306;SDS011;4691;47.612;7.610;2023-04-03T05:26:16;14.00;;;9.30;;
9306;SDS011;4691;47.612;7.610;2023-04-03T05:28:42;14.20;;;7.95;;
9306;SDS011;4691;47.612;7.610;2023-04-03T05:31:07;13.05;;;8.48;;
9306;SDS011;4691;47.612;7.610;2023-04-03T05:33:32;13.50;;;9.43;;
9306;SDS011;4691;47.612;7.610;2023-04-03T05:36:01;13.43;;;9.35;;
9306;SDS011;4691;47.612;7.610;2023-04-03T05:38:28;14.93;;;8.63;;
9306;SDS011;4691;47.612;7.610;2023-04-03T05:40:53;12.38;;;9.13;;
9306;SDS011;4691;47.612;7.610;2023-04-03T05:43:19;14.13;;;8.52;;
9306;SDS011;4691;47.612;7.610;2023-04-03T05:45:44;14.85;;;9.32;;
9306;SDS011;4691;47.612;7.610;2023-04-03T05:48:10;17.30;;;9.85;;
9306;SDS011;4691;47.612;7.610;2023-04-03T05:50:35;12.60;;;8.43;;
9306;SDS011;4691;47.612;7.610;2023-04-03T05:53:01;12.50;;;8.40;;
9306;SDS011;4691;47.612;7.610;2023-04-03T05:55:27;14.02;;;9.05;;
9306;SDS011;4691;47.612;7.610;2023-04-03T05:57:52;16.55;;;10.13;;
9306;SDS011;4691;47.612;7.610;2023-04-03T06:00:18;14.07;;;9.13;;
9306;SDS011;4691;47.612;7.610;2023-04-03T06:02:43;16.25;;;9.35;;
9306;SDS011;4691;47.612;7.610;2023-04-03T06:05:09;18.45;;;9.85;;
9306;SDS011;4691;47.612;7.610;2023-04-03T06:07:36;13.35;;;9.70;;
9306;SDS011;4691;47.612;7.610;2023-04-03T06:10:02;15.30;;;9.95;;
9306;SDS011;4691;47.612;7.610;2023-04-03T06:12:28;15.98;;;9.65;;
9306;SDS011;4691;47.612;7.610;2023-04-03T06:14:56;15.80;;;10.18;;
9306;SDS011;4691;47.612;7.610;2023-04-03T06:17:22;17.92;;;11.23;;
9306;SDS011;4691;47.612;7.610;2023-04-03T06:19:47;18.92;;;10.75;;
9306;SDS011;4691;47.612;7.610;2023-04-03T06:22:13;22.90;;;11.15;;
9306;SDS011;4691;47.612;7.610;2023-04-03T06:24:38;20.58;;;10.60;;
9306;SDS011;4691;47.612;7.610;2023-04-03T06:27:04;26.60;;;13.02;;
9306;SDS011;4691;47.612;7.610;2023-04-03T06:29:29;20.52;;;12.60;;
9306;SDS011;4691;47.612;7.610;2023-04-03T06:31:55;17.10;;;11.45;;
9306;SDS011;4691;47.612;7.610;2023-04-03T06:34:20;17.50;;;12.32;;
9306;SDS011;4691;47.612;7.610;2023-04-03T06:36:46;14.93;;;10.88;;
9306;SDS011;4691;47.612;7.610;2023-04-03T06:39:13;20.08;;;12.85;;
9306;SDS011;4691;47.612;7.610;2023-04-03T06:41:40;20.38;;;12.13;;
9306;SDS011;4691;47.612;7.610;2023-04-03T06:44:06;16.85;;;10.95;;
9306;SDS011;4691;47.612;7.610;2023-04-03T06:46:32;24.90;;;14.30;;
9306;SDS011;4691;47.612;7.610;2023-04-03T06:48:58;17.83;;;11.43;;
9306;SDS011;4691;47.612;7.610;2023-04-03T06:51:24;20.63;;;13.45;;
9306;SDS011;4691;47.612;7.610;2023-04-03T06:53:52;17.83;;;11.05;;
9306;SDS011;4691;47.612;7.610;2023-04-03T06:56:18;21.77;;;13.27;;
9306;SDS011;4691;47.612;7.610;2023-04-03T06:58:44;23.92;;;13.20;;
9306;SDS011;4691;47.612;7.610;2023-04-03T07:01:10;17.17;;;10.82;;
9306;SDS011;4691;47.612;7.610;2023-04-03T07:03:37;18.67;;;11.90;;
9306;SDS011;4691;47.612;7.610;2023-04-03T07:06:03;18.15;;;11.30;;
9306;SDS011;4691;47.612;7.610;2023-04-03T07:08:29;19.55;;;10.23;;
9306;SDS011;4691;47.612;7.610;2023-04-03T07:10:54;20.63;;;12.43;;
9306;SDS011;4691;47.612;7.610;2023-04-03T07:13:20;17.50;;;11.23;;
9306;SDS011;4691;47.612;7.610;2023-04-03T07:15:45;18.15;;;11.23;;
9306;SDS011;4691;47.612;7.610;2023-04-03T07:18:11;14.25;;;10.25;;
9306;SDS011;4691;47.612;7.610;2023-04-03T07:20:36;14.90;;;10.07;;
9306;SDS011;4691;47.612;7.610;2023-04-03T07:23:01;19.65;;;10.68;;
9306;SDS011;4691;47.612;7.610;2023-04-03T07:25:27;13.95;;;10.40;;
9306;SDS011;4691;47.612;7.610;2023-04-03T07:27:53;17.30;;;11.25;;
9306;SDS011;4691;47.612;7.610;2023-04-03T07:30:19;18.48;;;11.00;;
9306;SDS011;4691;47.612;7.610;2023-04-03T07:32:44;15.23;;;10.00;;
9306;SDS011;4691;47.612;7.610;2023-04-03T07:35:10;32.05;;;15.05;;
9306;SDS011;4691;47.612;7.610;2023-04-03T07:37:36;22.65;;;12.98;;
9306;SDS011;4691;47.612;7.610;2023-04-03T07:40:01;14.93;;;10.23;;
9306;SDS011;4691;47.612;7.610;2023-04-03T07:42:28;21.17;;;12.45;;
9306;SDS011;4691;47.612;7.610;2023-04-03T07:44:53;17.58;;;11.10;;
9306;SDS011;4691;47.612;7.610;2023-04-03T07:47:19;19.35;;;12.00;;
9306;SDS011;4691;47.612;7.610;2023-04-03T07:49:46;14.40;;;10.02;;
9306;SDS011;4691;47.612;7.610;2023-04-03T07:52:12;24.85;;;13.80;;
9306;SDS011;4691;47.612;7.610;2023-04-03T07:54:38;18.50;;;12.32;;
9306;SDS011;4691;47.612;7.610;2023-04-03T07:57:03;20.20;;;12.88;;
9306;SDS011;4691;47.612;7.610;2023-04-03T07:59:28;16.88;;;11.75;;
9306;SDS011;4691;47.612;7.610;2023-04-03T08:01:54;18.30;;;12.85;;
9306;SDS011;4691;47.612;7.610;2023-04-03T08:04:19;16.02;;;10.98;;
9306;SDS011;4691;47.612;7.610;2023-04-03T08:06:44;18.88;;;12.05;;
9306;SDS011;4691;47.612;7.610;2023-04-03T08:09:10;17.13;;;11.32;;
9306;SDS011;4691;47.612;7.610;2023-04-03T08:11:35;21.63;;;13.27;;
9306;SDS011;4691;47.612;7.610;2023-04-03T08:14:03;21.55;;;12.65;;
9306;SDS011;4691;47.612;7.610;2023-04-03T08:16:28;18.73;;;12.73;;
9306;SDS011;4691;47.612;7.610;2023-04-03T08:18:54;17.17;;;10.55;;
9306;SDS011;4691;47.612;7.610;2023-04-03T08:21:20;18.67;;;10.93;;
9306;SDS011;4691;47.612;7.610;2023-04-03T08:23:47;20.10;;;12.20;;
9306;SDS011;4691;47.612;7.610;2023-04-03T08:26:15;22.23;;;11.60;;
9306;SDS011;4691;47.612;7.610;2023-04-03T08:28:42;47.08;;;18.98;;
9306;SDS011;4691;47.612;7.610;2023-04-03T08:31:09;20.35;;;10.88;;
9306;SDS011;4691;47.612;7.610;2023-04-03T08:33:37;13.70;;;9.77;;
9306;SDS011;4691;47.612;7.610;2023-04-03T08:36:04;17.83;;;11.48;;
9306;SDS011;4691;47.612;7.610;2023-04-03T08:38:31;17.48;;;12.23;;
9306;SDS011;4691;47.612;7.610;2023-04-03T08:41:02;26.38;;;14.63;;
9306;SDS011;4691;47.612;7.610;2023-04-03T08:46:11;14.68;;;10.65;;
9306;SDS011;4691;47.612;7.610;2023-04-03T08:48:41;21.30;;;12.30;;
9306;SDS011;4691;47.612;7.610;2023-04-03T08:51:14;22.35;;;12.48;;
9306;SDS011;4691;47.612;7.610;2023-04-03T08:54:01;19.88;;;12.68;;
9306;SDS011;4691;47.612;7.610;2023-04-03T08:56:32;17.88;;;11.70;;
9306;SDS011;4691;47.612;7.610;2023-04-03T08:59:04;22.50;;;13.20;;
9306;SDS011;4691;47.612;7.610;2023-04-03T09:01:36;14.48;;;10.55;;
9306;SDS011;4691;47.612;7.610;2023-04-03T09:04:09;16.40;;;11.07;;
9306;SDS011;4691;47.612;7.610;2023-04-03T09:06:39;19.38;;;12.32;;
9306;SDS011;4691;47.612;7.610;2023-04-03T09:09:18;19.38;;;12.13;;
9306;SDS011;4691;47.612;7.610;2023-04-03T09:20:07;16.33;;;11.30;;
9306;SDS011;4691;47.612;7.610;2023-04-03T09:22:34;15.73;;;10.25;;
9306;SDS011;4691;47.612;7.610;2023-04-03T09:27:35;16.92;;;10.95;;
9306;SDS011;4691;47.612;7.610;2023-04-03T09:30:00;17.80;;;11.63;;
9306;SDS011;4691;47.612;7.610;2023-04-03T09:32:30;14.85;;;9.73;;
9306;SDS011;4691;47.612;7.610;2023-04-03T09:34:58;15.90;;;11.77;;
9306;SDS011;4691;47.612;7.610;2023-04-03T09:37:36;17.42;;;10.77;;
9306;SDS011;4691;47.612;7.610;2023-04-03T09:40:12;13.07;;;8.95;;
9306;SDS011;4691;47.612;7.610;2023-04-03T09:42:55;17.25;;;9.50;;
9306;SDS011;4691;47.612;7.610;2023-04-03T09:45:24;12.30;;;8.57;;
9306;SDS011;4691;47.612;7.610;2023-04-03T09:53:42;11.90;;;8.20;;
9306;SDS011;4691;47.612;7.610;2023-04-03T09:58:40;10.30;;;8.18;;
9306;SDS011;4691;47.612;7.610;2023-04-03T10:06:48;10.32;;;7.60;;
9306;SDS011;4691;47.612;7.610;2023-04-03T10:09:23;14.02;;;9.05;;
9306;SDS011;4691;47.612;7.610;2023-04-03T10:14:25;7.93;;;6.45;;
9306;SDS011;4691;47.612;7.610;2023-04-03T10:20:22;8.52;;;6.68;;
9306;SDS011;4691;47.612;7.610;2023-04-03T10:23:05;9.00;;;7.05;;
9306;SDS011;4691;47.612;7.610;2023-04-03T10:25:40;10.30;;;8.48;;
9306;SDS011;4691;47.612;7.610;2023-04-03T10:28:19;9.05;;;7.18;;
9306;SDS011;4691;47.612;7.610;2023-04-03T10:33:42;11.45;;;7.15;;
9306;SDS011;4691;47.612;7.610;2023-04-03T10:36:27;10.82;;;7.55;;
9306;SDS011;4691;47.612;7.610;2023-04-03T10:47:20;24.60;;;12.82;;
9306;SDS011;4691;47.612;7.610;2023-04-03T10:50:23;12.60;;;7.65;;
9306;SDS011;4691;47.612;7.610;2023-04-03T10:53:13;19.65;;;7.93;;
9306;SDS011;4691;47.612;7.610;2023-04-03T10:55:43;30.23;;;13.65;;
9306;SDS011;4691;47.612;7.610;2023-04-03T10:58:49;11.80;;;7.70;;
9306;SDS011;4691;47.612;7.610;2023-04-03T11:01:11;7.80;;;5.22;;
9306;SDS011;4691;47.612;7.610;2023-04-03T11:03:42;7.25;;;5.30;;
9306;SDS011;4691;47.612;7.610;2023-04-03T11:06:12;9.20;;;7.72;;
9306;SDS011;4691;47.612;7.610;2023-04-03T11:11:17;4.68;;;3.72;;
9306;SDS011;4691;47.612;7.610;2023-04-03T11:16:15;9.90;;;7.45;;
9306;SDS011;4691;47.612;7.610;2023-04-03T11:18:49;9.73;;;7.63;;
9306;SDS011;4691;47.612;7.610;2023-04-03T11:21:20;8.35;;;6.05;;
9306;SDS011;4691;47.612;7.610;2023-04-03T11:26:19;4.93;;;3.85;;
9306;SDS011;4691;47.612;7.610;2023-04-03T11:28:52;4.68;;;3.40;;
9306;SDS011;4691;47.612;7.610;2023-04-03T11:31:27;5.60;;;3.30;;
9306;SDS011;4691;47.612;7.610;2023-04-03T11:34:16;3.85;;;3.13;;
9306;SDS011;4691;47.612;7.610;2023-04-03T11:36:56;3.50;;;3.03;;
9306;SDS011;4691;47.612;7.610;2023-04-03T11:39:31;4.45;;;3.30;;
9306;SDS011;4691;47.612;7.610;2023-04-03T12:03:29;3.60;;;2.80;;
9306;SDS011;4691;47.612;7.610;2023-04-03T12:19:04;4.15;;;3.50;;
9306;SDS011;4691;47.612;7.610;2023-04-03T12:40:37;4.28;;;3.13;;
9306;SDS011;4691;47.612;7.610;2023-04-03T12:43:11;7.35;;;3.30;;
9306;SDS011;4691;47.612;7.610;2023-04-03T12:48:29;4.85;;;3.30;;
9306;SDS011;4691;47.612;7.610;2023-04-03T12:50:59;4.55;;;3.30;;
9306;SDS011;4691;47.612;7.610;2023-04-03T12:53:26;5.10;;;3.70;;
9306;SDS011;4691;47.612;7.610;2023-04-03T12:55:56;5.60;;;4.00;;
9306;SDS011;4691;47.612;7.610;2023-04-03T13:01:11;4.20;;;3.42;;
9306;SDS011;4691;47.612;7.610;2023-04-03T13:03:43;12.18;;;3.85;;
9306;SDS011;4691;47.612;7.610;2023-04-03T13:06:17;7.45;;;3.38;;
9306;SDS011;4691;47.612;7.610;2023-04-03T13:08:52;5.30;;;3.50;;
9306;SDS011;4691;47.612;7.610;2023-04-03T13:11:21;8.52;;;3.72;;
9306;SDS011;4691;47.612;7.610;2023-04-03T13:13:58;5.38;;;4.03;;
9306;SDS011;4691;47.612;7.610;2023-04-03T13:16:27;6.35;;;4.15;;
9306;SDS011;4691;47.612;7.610;2023-04-03T13:18:53;5.60;;;4.25;;
9306;SDS011;4691;47.612;7.610;2023-04-03T13:21:24;6.00;;;3.90;;
9306;SDS011;4691;47.612;7.610;2023-04-03T13:23:54;5.05;;;3.70;;
9306;SDS011;4691;47.612;7.610;2023-04-03T13:26:22;4.82;;;3.85;;
9306;SDS011;4691;47.612;7.610;2023-04-03T13:28:51;4.68;;;3.75;;
9306;SDS011;4691;47.612;7.610;2023-04-03T13:31:27;5.57;;;3.70;;
9306;SDS011;4691;47.612;7.610;2023-04-03T13:34:15;5.90;;;5.15;;
9306;SDS011;4691;47.612;7.610;2023-04-03T13:36:45;4.65;;;3.80;;
9306;SDS011;4691;47.612;7.610;2023-04-03T13:39:24;7.53;;;4.85;;
9306;SDS011;4691;47.612;7.610;2023-04-03T13:41:52;4.97;;;4.25;;
9306;SDS011;4691;47.612;7.610;2023-04-03T13:46:48;7.43;;;4.50;;
9306;SDS011;4691;47.612;7.610;2023-04-03T13:54:45;6.93;;;4.53;;
9306;SDS011;4691;47.612;7.610;2023-04-03T13:57:13;6.95;;;4.95;;
9306;SDS011;4691;47.612;7.610;2023-04-03T13:59:40;7.85;;;4.60;;
9306;SDS011;4691;47.612;7.610;2023-04-03T14:02:18;8.45;;;6.88;;
9306;SDS011;4691;47.612;7.610;2023-04-03T14:04:48;6.10;;;4.47;;
9306;SDS011;4691;47.612;7.610;2023-04-03T14:07:18;6.65;;;4.50;;
9306;SDS011;4691;47.612;7.610;2023-04-03T14:09:45;6.70;;;4.60;;
9306;SDS011;4691;47.612;7.610;2023-04-03T14:12:52;5.03;;;4.03;;
9306;SDS011;4691;47.612;7.610;2023-04-03T14:15:02;7.03;;;4.30;;
9306;SDS011;4691;47.612;7.610;2023-04-03T14:17:30;7.05;;;4.43;;
9306;SDS011;4691;47.612;7.610;2023-04-03T14:19:56;4.68;;;4.05;;
9306;SDS011;4691;47.612;7.610;2023-04-03T14:22:30;5.07;;;4.22;;
9306;SDS011;4691;47.612;7.610;2023-04-03T14:24:57;5.60;;;4.43;;
9306;SDS011;4691;47.612;7.610;2023-04-03T14:27:25;5.97;;;4.80;;
9306;SDS011;4691;47.612;7.610;2023-04-03T14:29:59;9.15;;;7.45;;
9306;SDS011;4691;47.612;7.610;2023-04-03T14:32:25;8.80;;;4.88;;
9306;SDS011;4691;47.612;7.610;2023-04-03T14:34:51;6.40;;;4.75;;
9306;SDS011;4691;47.612;7.610;2023-04-03T14:37:18;6.47;;;4.75;;
9306;SDS011;4691;47.612;7.610;2023-04-03T14:39:47;6.72;;;4.55;;
9306;SDS011;4691;47.612;7.610;2023-04-03T14:42:14;7.03;;;5.10;;
9306;SDS011;4691;47.612;7.610;2023-04-03T14:44:45;6.10;;;4.70;;
9306;SDS011;4691;47.612;7.610;2023-04-03T14:47:14;11.80;;;5.82;;
9306;SDS011;4691;47.612;7.610;2023-04-03T14:49:43;7.65;;;4.88;;
9306;SDS011;4691;47.612;7.610;2023-04-03T14:52:19;7.18;;;4.80;;
9306;SDS011;4691;47.612;7.610;2023-04-03T14:54:47;5.65;;;4.30;;
9306;SDS011;4691;47.612;7.610;2023-04-03T14:57:13;8.25;;;4.78;;
9306;SDS011;4691;47.612;7.610;2023-04-03T14:59:40;8.35;;;4.28;;
9306;SDS011;4691;47.612;7.610;2023-04-03T15:04:50;5.55;;;4.07;;
9306;SDS011;4691;47.612;7.610;2023-04-03T15:07:15;6.07;;;4.03;;
9306;SDS011;4691;47.612;7.610;2023-04-03T15:09:41;5.18;;;4.03;;
9306;SDS011;4691;47.612;7.610;2023-04-03T15:12:08;5.90;;;3.85;;
9306;SDS011;4691;47.612;7.610;2023-04-03T15:14:33;7.45;;;4.95;;
9306;SDS011;4691;47.612;7.610;2023-04-03T15:16:59;5.63;;;4.60;;
9306;SDS011;4691;47.612;7.610;2023-04-03T15:19:26;14.55;;;10.65;;
9306;SDS011;4691;47.612;7.610;2023-04-03T15:21:51;7.65;;;5.47;;
9306;SDS011;4691;47.612;7.610;2023-04-03T15:24:16;6.60;;;4.40;;
9306;SDS011;4691;47.612;7.610;2023-04-03T15:26:42;5.97;;;4.90;;
9306;SDS011;4691;47.612;7.610;2023-04-03T15:29:07;6.57;;;5.45;;
9306;SDS011;4691;47.612;7.610;2023-04-03T15:31:32;5.72;;;4.13;;
9306;SDS011;4691;47.612;7.610;2023-04-03T15:33:58;5.03;;;4.20;;
9306;SDS011;4691;47.612;7.610;2023-04-03T15:36:23;5.72;;;4.13;;
9306;SDS011;4691;47.612;7.610;2023-04-03T15:38:49;6.80;;;3.97;;
9306;SDS011;4691;47.612;7.610;2023-04-03T15:41:14;5.40;;;4.28;;
9306;SDS011;4691;47.612;7.610;2023-04-03T15:43:40;6.18;;;4.20;;
9306;SDS011;4691;47.612;7.610;2023-04-03T15:46:05;9.45;;;5.88;;
9306;SDS011;4691;47.612;7.610;2023-04-03T15:48:30;9.20;;;5.00;;
9306;SDS011;4691;47.612;7.610;2023-04-03T15:50:56;7.53;;;4.50;;
9306;SDS011;4691;47.612;7.610;2023-04-03T15:53:21;5.28;;;4.05;;
9306;SDS011;4691;47.612;7.610;2023-04-03T15:55:47;6.40;;;4.20;;
9306;SDS011;4691;47.612;7.610;2023-04-03T15:58:12;6.38;;;4.40;;
9306;SDS011;4691;47.612;7.610;2023-04-03T16:00:38;6.25;;;4.30;;
9306;SDS011;4691;47.612;7.610;2023-04-03T16:03:15;6.15;;;4.43;;
9306;SDS011;4691;47.612;7.610;2023-04-03T16:05:41;7.22;;;4.60;;
9306;SDS011;4691;47.612;7.610;2023-04-03T16:08:07;6.47;;;4.70;;
9306;SDS011;4691;47.612;7.610;2023-04-03T16:10:34;7.10;;;4.50;;
9306;SDS011;4691;47.612;7.610;2023-04-03T16:13:00;8.55;;;5.13;;
9306;SDS011;4691;47.612;7.610;2023-04-03T16:15:25;6.38;;;4.78;;
9306;SDS011;4691;47.612;7.610;2023-04-03T16:17:52;6.53;;;4.75;;
9306;SDS011;4691;47.612;7.610;2023-04-03T16:20:18;9.00;;;5.15;;
9306;SDS011;4691;47.612;7.610;2023-04-03T16:22:44;6.85;;;4.97;;
9306;SDS011;4691;47.612;7.610;2023-04-03T16:25:10;10.23;;;5.22;;
9306;SDS011;4691;47.612;7.610;2023-04-03T16:27:36;8.07;;;5.60;;
9306;SDS011;4691;47.612;7.610;2023-04-03T16:30:03;7.90;;;5.20;;
9306;SDS011;4691;47.612;7.610;2023-04-03T16:32:29;10.23;;;5.20;;
9306;SDS011;4691;47.612;7.610;2023-04-03T16:34:56;7.07;;;4.75;;
9306;SDS011;4691;47.612;7.610;2023-04-03T16:37:22;8.77;;;5.00;;
9306;SDS011;4691;47.612;7.610;2023-04-03T16:39:48;7.50;;;5.22;;
9306;SDS011;4691;47.612;7.610;2023-04-03T16:42:13;9.77;;;6.00;;
9306;SDS011;4691;47.612;7.610;2023-04-03T16:44:38;8.50;;;5.47;;
9306;SDS011;4691;47.612;7.610;2023-04-03T16:47:04;9.07;;;5.70;;
9306;SDS011;4691;47.612;7.610;2023-04-03T16:49:31;7.80;;;5.60;;
9306;SDS011;4691;47.612;7.610;2023-04-03T16:52:03;8.45;;;5.78;;
9306;SDS011;4691;47.612;7.610;2023-04-03T16:54:29;8.93;;;5.47;;
9306;SDS011;4691;47.612;7.610;2023-04-03T16:56:55;7.78;;;5.38;;
9306;SDS011;4691;47.612;7.610;2023-04-03T16:59:21;7.10;;;5.30;;
9306;SDS011;4691;47.612;7.610;2023-04-03T17:01:46;6.05;;;4.85;;
9306;SDS011;4691;47.612;7.610;2023-04-03T17:04:13;7.00;;;5.22;;
9306;SDS011;4691;47.612;7.610;2023-04-03T17:06:39;7.55;;;5.47;;
9306;SDS011;4691;47.612;7.610;2023-04-03T17:09:05;12.27;;;6.85;;
9306;SDS011;4691;47.612;7.610;2023-04-03T17:11:31;10.98;;;5.35;;
9306;SDS011;4691;47.612;7.610;2023-04-03T17:13:58;7.35;;;5.38;;
9306;SDS011;4691;47.612;7.610;2023-04-03T17:16:24;8.57;;;5.65;;
9306;SDS011;4691;47.612;7.610;2023-04-03T17:18:50;8.45;;;5.25;;
9306;SDS011;4691;47.612;7.610;2023-04-03T17:21:18;7.70;;;5.38;;